Time;durP1;ratioP1;P1;durP2;ratioP2;P2;SDS_P1;SDS_P2;PMS_P1;PMS_P2;Temp;Humidity;BMP_temperature;BMP_pressure;BME280_temperature;BME280_humidity;BME280_pressure;Samples;Min_cycle;Max_cycle;Signal;HPM_P1;HPM_P2
2023/04/30 00:02:09;;;;;;;;;;;15.10;99.90;;;;;;5100657;28;19991;-61
2023/04/30 00:04:35;;;;;;;;;;;15.10;99.90;;;;;;5100410;28;19970;-62
2023/04/30 00:07:01;;;;;;;;;;;15.10;99.90;;;;;;5100590;28;19918;-61
2023/04/30 00:09:27;;;;;;;;;;;15.10;99.90;;;;;;5100674;28;19991;-62
2023/04/30 00:11:52;;;;;;;;;;;15.00;99.90;;;;;;5100517;28;20358;-61
2023/04/30 00:14:18;;;;;;;;;;;15.00;99.90;;;;;;5100631;28;19908;-62
2023/04/30 00:16:43;;;;;;;;;;;15.00;99.90;;;;;;5100744;28;19916;-61
2023/04/30 00:19:09;;;;;;;;;;;15.00;99.90;;;;;;5100274;28;20360;-61
2023/04/30 00:21:35;;;;;;;;;;;15.00;99.90;;;;;;5098820;28;19945;-61
2023/04/30 00:24:01;;;;;;;;;;;15.00;99.90;;;;;;5100375;28;19986;-61
2023/04/30 00:26:26;;;;;;;;;;;15.00;99.90;;;;;;5100168;28;19994;-62
2023/04/30 00:28:52;;;;;;;;;;;15.00;99.90;;;;;;5099808;28;19977;-62
2023/04/30 00:31:17;;;;;;;;;;;15.00;99.90;;;;;;5100144;28;19908;-61
2023/04/30 00:33:43;;;;;;;;;;;15.00;99.90;;;;;;5100287;28;19908;-62
2023/04/30 00:36:09;;;;;;;;;;;15.00;99.90;;;;;;5100112;28;19912;-62
2023/04/30 00:38:34;;;;;;;;;;;14.90;99.90;;;;;;5099690;28;19908;-61
2023/04/30 00:41:00;;;;;;;;;;;15.00;99.90;;;;;;5099822;28;19916;-61
2023/04/30 00:43:26;;;;;;;;;;;15.00;99.90;;;;;;5100004;28;19957;-61
2023/04/30 00:45:52;;;;;;;;;;;15.00;99.90;;;;;;5099813;28;19908;-61
2023/04/30 00:48:17;;;;;;;;;;;15.10;99.90;;;;;;5099420;28;20363;-61
2023/04/30 00:50:43;;;;;;;;;;;14.90;99.90;;;;;;5099741;28;19908;-61
2023/04/30 00:53:12;;;;;;;;;;;14.90;99.90;;;;;;5098238;28;19954;-62
2023/04/30 00:55:42;;;;;;;;;;;15.00;99.90;;;;;;5099708;28;19966;-62
2023/04/30 00:58:08;;;;;;;;;;;14.90;99.90;;;;;;5099699;28;19958;-62
2023/04/30 01:00:34;;;;;;;;;;;14.90;99.90;;;;;;5099512;28;19912;-62
2023/04/30 01:02:59;;;;;;;;;;;14.80;99.90;;;;;;5099667;28;20382;-62
2023/04/30 01:05:25;;;;;;;;;;;14.90;99.90;;;;;;5099346;28;20007;-62
2023/04/30 01:07:51;;;;;;;;;;;14.90;99.90;;;;;;5099429;28;19912;-62
2023/04/30 01:10:18;;;;;;;;;;;14.90;99.90;;;;;;5099244;28;19908;-62
2023/04/30 01:12:47;;;;;;;;;;;14.80;99.90;;;;;;5099378;28;20387;-61
2023/04/30 01:15:26;;;;;;;;;;;14.80;99.90;;;;;;5099024;28;19908;-62
2023/04/30 01:17:52;;;;;;;;;;;14.80;99.90;;;;;;5098988;28;19975;-62
2023/04/30 01:20:18;;;;;;;;;;;14.80;99.90;;;;;;5099388;28;20391;-61
2023/04/30 01:22:44;;;;;;;;;;;14.80;99.90;;;;;;5099196;28;19908;-62
2023/04/30 01:25:09;;;;;;;;;;;14.70;99.90;;;;;;5099247;28;19962;-62
2023/04/30 01:27:35;;;;;;;;;;;14.80;99.90;;;;;;5098964;28;19920;-61
2023/04/30 01:30:01;;;;;;;;;;;14.70;99.90;;;;;;5098899;28;19912;-61
2023/04/30 01:32:27;;;;;;;;;;;14.60;99.90;;;;;;5099022;28;19946;-62
2023/04/30 01:34:53;;;;;;;;;;;14.60;99.90;;;;;;5098768;28;19908;-61
2023/04/30 01:37:21;;;;;;;;;;;14.70;99.90;;;;;;5098890;28;19918;-61
2023/04/30 01:40:06;;;;;;;;;;;14.70;99.90;;;;;;5098900;28;19908;-61
2023/04/30 01:42:35;;;;;;;;;;;14.70;99.90;;;;;;5098725;28;19908;-61
2023/04/30 01:45:12;;;;;;;;;;;14.70;99.90;;;;;;5098649;28;19915;-62
2023/04/30 01:47:38;;;;;;;;;;;14.70;99.90;;;;;;5098748;28;19908;-61
2023/04/30 01:50:22;;;;;;;;;;;14.70;99.90;;;;;;5098752;28;19916;-62
2023/04/30 01:52:52;;;;;;;;;;;14.60;99.90;;;;;;5098657;28;19948;-62
2023/04/30 01:55:26;;;;;;;;;;;14.70;99.90;;;;;;5098675;28;19957;-61
2023/04/30 01:57:55;;;;;;;;;;;14.60;99.90;;;;;;5098701;28;19908;-61
2023/04/30 02:00:21;;;;;;;;;;;14.60;99.90;;;;;;5098630;28;19915;-61
2023/04/30 02:02:46;;;;;;;;;;;14.60;99.90;;;;;;5098090;28;19916;-62
2023/04/30 02:05:12;;;;;;;;;;;14.70;99.90;;;;;;5098321;28;19916;-61
2023/04/30 02:07:42;;;;;;;;;;;14.60;99.90;;;;;;5098542;28;19909;-61
2023/04/30 02:10:08;;;;;;;;;;;14.60;99.90;;;;;;5098168;28;19916;-62
2023/04/30 02:12:34;;;;;;;;;;;14.60;99.90;;;;;;5098271;28;19983;-61
2023/04/30 02:15:00;;;;;;;;;;;14.60;99.90;;;;;;5098643;28;19989;-62
2023/04/30 02:17:25;;;;;;;;;;;14.60;99.90;;;;;;5098664;28;19919;-61
2023/04/30 02:19:51;;;;;;;;;;;14.60;99.90;;;;;;5098086;28;19915;-62
2023/04/30 02:22:16;;;;;;;;;;;14.70;99.90;;;;;;5098461;28;20318;-61
2023/04/30 02:24:42;;;;;;;;;;;14.60;99.90;;;;;;5098265;28;19909;-62
2023/04/30 02:27:08;;;;;;;;;;;14.60;99.90;;;;;;5097979;28;19999;-61
2023/04/30 02:29:33;;;;;;;;;;;14.70;99.90;;;;;;5097856;28;19927;-62
2023/04/30 02:31:59;;;;;;;;;;;14.60;99.90;;;;;;5098146;28;19915;-62
2023/04/30 02:34:25;;;;;;;;;;;14.70;99.90;;;;;;5098137;28;19908;-61
2023/04/30 02:36:50;;;;;;;;;;;14.70;99.90;;;;;;5097899;28;19916;-62
2023/04/30 02:39:16;;;;;;;;;;;14.60;99.90;;;;;;5098288;28;20050;-62
2023/04/30 02:41:42;;;;;;;;;;;14.70;99.90;;;;;;5098122;28;19916;-61
2023/04/30 02:44:07;;;;;;;;;;;14.70;99.90;;;;;;5097822;28;19916;-61
2023/04/30 02:46:33;;;;;;;;;;;14.70;99.90;;;;;;5098128;28;19915;-61
2023/04/30 02:48:59;;;;;;;;;;;14.70;99.90;;;;;;5097741;28;19919;-62
2023/04/30 02:51:24;;;;;;;;;;;14.60;99.90;;;;;;5098075;28;19912;-62
2023/04/30 02:53:50;;;;;;;;;;;14.60;99.90;;;;;;5097767;28;19908;-62
2023/04/30 02:56:16;;;;;;;;;;;14.60;99.90;;;;;;5097771;28;19912;-62
2023/04/30 02:58:41;;;;;;;;;;;14.60;99.90;;;;;;5097774;28;19961;-61
2023/04/30 03:01:07;;;;;;;;;;;14.60;99.90;;;;;;5097608;28;19916;-62
2023/04/30 03:03:33;;;;;;;;;;;14.60;99.90;;;;;;5098160;28;19908;-61
2023/04/30 03:05:58;;;;;;;;;;;14.60;99.90;;;;;;5097678;28;19908;-62
2023/04/30 03:08:24;;;;;;;;;;;14.60;99.90;;;;;;5097739;28;19961;-62
2023/04/30 03:10:50;;;;;;;;;;;14.60;99.90;;;;;;5097618;28;19908;-61
2023/04/30 03:13:15;;;;;;;;;;;14.60;99.90;;;;;;5098091;28;19908;-62
2023/04/30 03:15:41;;;;;;;;;;;14.50;99.90;;;;;;5097735;28;19912;-62
2023/04/30 03:18:07;;;;;;;;;;;14.50;99.90;;;;;;5097751;28;19915;-61
2023/04/30 03:20:32;;;;;;;;;;;14.50;99.90;;;;;;5097566;28;19908;-62
2023/04/30 03:22:58;;;;;;;;;;;14.40;99.90;;;;;;5097620;28;19908;-61
2023/04/30 03:25:23;;;;;;;;;;;14.30;99.90;;;;;;5097729;28;19943;-61
2023/04/30 03:27:49;;;;;;;;;;;14.40;99.90;;;;;;5097324;28;19916;-62
2023/04/30 03:30:15;;;;;;;;;;;14.40;99.90;;;;;;5097661;28;19908;-62
2023/04/30 03:32:40;;;;;;;;;;;14.40;99.90;;;;;;5097417;28;19934;-61
2023/04/30 03:35:07;;;;;;;;;;;14.40;99.90;;;;;;5097418;28;20343;-62
2023/04/30 03:37:32;;;;;;;;;;;14.40;99.90;;;;;;5097162;28;19915;-61
2023/04/30 03:39:58;;;;;;;;;;;14.40;99.90;;;;;;5099420;28;19908;-62
2023/04/30 03:42:24;;;;;;;;;;;14.30;99.90;;;;;;5101386;28;19971;-61
2023/04/30 03:44:49;;;;;;;;;;;14.30;99.90;;;;;;5101026;28;20337;-61
2023/04/30 03:47:15;;;;;;;;;;;14.30;99.90;;;;;;5101054;28;19908;-62
2023/04/30 03:49:41;;;;;;;;;;;14.30;99.90;;;;;;5100633;28;19912;-61
2023/04/30 03:52:06;;;;;;;;;;;14.30;99.90;;;;;;5100795;28;19943;-62
2023/04/30 03:54:34;;;;;;;;;;;14.30;99.90;;;;;;5100626;28;19916;-62
2023/04/30 03:57:03;;;;;;;;;;;14.40;99.90;;;;;;5100928;28;19919;-61
2023/04/30 03:59:29;;;;;;;;;;;14.30;99.90;;;;;;5101292;28;19987;-62
2023/04/30 04:01:55;;;;;;;;;;;14.20;99.90;;;;;;5101329;28;19908;-62
2023/04/30 04:04:21;;;;;;;;;;;14.20;99.90;;;;;;5101087;28;19912;-61
2023/04/30 04:06:46;;;;;;;;;;;14.20;99.90;;;;;;5100780;28;19908;-62
2023/04/30 04:09:12;;;;;;;;;;;14.20;99.90;;;;;;5101250;28;19947;-61
2023/04/30 04:11:37;;;;;;;;;;;14.20;99.90;;;;;;5100614;28;20398;-61
2023/04/30 04:14:03;;;;;;;;;;;14.20;99.90;;;;;;5100577;28;19916;-62
2023/04/30 04:16:29;;;;;;;;;;;14.20;99.90;;;;;;5100327;28;19919;-61
2023/04/30 04:18:55;;;;;;;;;;;14.10;99.90;;;;;;5100082;28;19908;-61
2023/04/30 04:21:20;;;;;;;;;;;14.10;99.90;;;;;;5100194;28;19908;-62
2023/04/30 04:23:46;;;;;;;;;;;14.10;99.90;;;;;;5100073;28;19908;-61
2023/04/30 04:26:11;;;;;;;;;;;14.10;99.90;;;;;;5100351;28;19997;-61
2023/04/30 04:28:37;;;;;;;;;;;14.00;99.90;;;;;;5100093;28;19983;-61
2023/04/30 04:31:03;;;;;;;;;;;14.00;99.90;;;;;;5099998;28;20368;-61
2023/04/30 04:33:29;;;;;;;;;;;14.00;99.90;;;;;;5099838;28;19908;-61
2023/04/30 04:35:56;;;;;;;;;;;14.00;99.90;;;;;;5099909;28;19997;-62
2023/04/30 04:38:22;;;;;;;;;;;14.10;99.90;;;;;;5099874;28;20314;-62
2023/04/30 04:40:52;;;;;;;;;;;14.00;99.90;;;;;;5100151;28;19909;-61
2023/04/30 04:43:17;;;;;;;;;;;14.00;99.90;;;;;;5100023;28;19943;-62
2023/04/30 04:45:43;;;;;;;;;;;14.00;99.90;;;;;;5100102;28;20359;-61
2023/04/30 04:48:08;;;;;;;;;;;14.00;99.90;;;;;;5099916;28;19908;-62
2023/04/30 04:50:35;;;;;;;;;;;14.00;99.90;;;;;;5099796;28;19909;-61
2023/04/30 04:53:00;;;;;;;;;;;14.00;99.90;;;;;;5099754;28;19908;-61
2023/04/30 04:55:26;;;;;;;;;;;13.90;99.90;;;;;;5099922;28;19916;-62
2023/04/30 04:57:51;;;;;;;;;;;13.90;99.90;;;;;;5099813;28;19908;-62
2023/04/30 05:00:17;;;;;;;;;;;13.90;99.90;;;;;;5099678;28;19947;-62
2023/04/30 05:02:43;;;;;;;;;;;13.80;99.90;;;;;;5099396;28;19935;-62
2023/04/30 05:05:09;;;;;;;;;;;13.90;99.90;;;;;;5099612;28;19908;-62
2023/04/30 05:07:35;;;;;;;;;;;13.90;99.90;;;;;;5099421;28;19915;-61
2023/04/30 05:10:01;;;;;;;;;;;13.90;99.90;;;;;;5099331;28;19912;-62
2023/04/30 05:12:26;;;;;;;;;;;13.90;99.90;;;;;;5099317;28;19908;-61
2023/04/30 05:14:52;;;;;;;;;;;13.90;99.90;;;;;;5099160;28;19908;-62
2023/04/30 05:17:17;;;;;;;;;;;14.00;99.90;;;;;;5099550;28;20282;-61
2023/04/30 05:19:44;;;;;;;;;;;13.90;99.90;;;;;;5099068;28;19957;-62
2023/04/30 05:22:09;;;;;;;;;;;14.00;99.90;;;;;;5098908;28;19939;-62
2023/04/30 05:24:35;;;;;;;;;;;13.90;99.90;;;;;;5099185;28;19915;-62
2023/04/30 05:27:04;;;;;;;;;;;14.00;99.90;;;;;;5098909;28;19912;-62
2023/04/30 05:29:30;;;;;;;;;;;14.10;99.90;;;;;;5098388;28;19985;-61
2023/04/30 05:31:56;;;;;;;;;;;13.90;99.90;;;;;;5099094;28;19908;-62
2023/04/30 05:34:21;;;;;;;;;;;13.90;99.90;;;;;;5098843;28;20256;-61
2023/04/30 05:36:47;;;;;;;;;;;13.80;99.90;;;;;;5099212;28;19919;-61
2023/04/30 05:39:13;;;;;;;;;;;13.80;99.90;;;;;;5098788;28;20397;-62
2023/04/30 05:41:38;;;;;;;;;;;13.80;99.90;;;;;;5098469;28;19908;-62
2023/04/30 05:44:04;;;;;;;;;;;13.80;99.90;;;;;;5098899;28;19987;-61
2023/04/30 05:46:30;;;;;;;;;;;14.60;99.90;;;;;;5099121;28;19908;-62
2023/04/30 05:48:55;;;;;;;;;;;13.80;99.90;;;;;;5098574;28;19914;-62
2023/04/30 05:51:21;;;;;;;;;;;13.90;99.90;;;;;;5098991;28;19951;-61
2023/04/30 05:53:46;;;;;;;;;;;14.00;99.90;;;;;;5098522;28;19937;-62
2023/04/30 05:56:12;;;;;;;;;;;14.00;99.90;;;;;;5098418;28;19935;-62
2023/04/30 05:58:38;;;;;;;;;;;14.10;99.90;;;;;;5098605;28;19908;-62
2023/04/30 06:01:04;;;;;;;;;;;14.10;99.90;;;;;;5098183;28;19969;-62
2023/04/30 06:03:30;;;;;;;;;;;14.10;99.90;;;;;;5097827;28;19973;-62
2023/04/30 06:05:55;;;;;;;;;;;14.20;99.90;;;;;;5098291;28;19908;-62
2023/04/30 06:08:21;;;;;;;;;;;14.20;99.90;;;;;;5098313;28;19912;-62
2023/04/30 06:10:47;;;;;;;;;;;14.30;99.90;;;;;;5098591;28;19908;-61
2023/04/30 06:13:13;;;;;;;;;;;14.20;99.90;;;;;;5098681;28;19912;-62
2023/04/30 06:15:40;;;;;;;;;;;14.40;99.90;;;;;;5098358;28;19951;-62
2023/04/30 06:18:06;;;;;;;;;;;14.40;99.90;;;;;;5097927;28;20006;-61
2023/04/30 06:20:32;;;;;;;;;;;14.50;99.90;;;;;;5098582;28;19954;-62
2023/04/30 06:22:58;;;;;;;;;;;14.40;99.90;;;;;;5098057;28;19995;-62
2023/04/30 06:25:25;;;;;;;;;;;14.50;99.90;;;;;;5098337;28;20003;-62
2023/04/30 06:27:52;;;;;;;;;;;14.50;99.90;;;;;;5096842;28;19920;-62
2023/04/30 06:30:18;;;;;;;;;;;14.50;99.90;;;;;;5097826;28;19916;-62
2023/04/30 06:32:44;;;;;;;;;;;14.60;99.90;;;;;;5098112;28;19908;-61
2023/04/30 06:35:10;;;;;;;;;;;14.70;99.90;;;;;;5097487;28;19912;-62
2023/04/30 06:37:36;;;;;;;;;;;14.90;99.90;;;;;;5097632;28;19912;-62
2023/04/30 06:40:06;;;;;;;;;;;14.90;99.90;;;;;;5097969;28;19908;-62
2023/04/30 06:42:33;;;;;;;;;;;15.00;99.90;;;;;;5097746;28;19919;-62
2023/04/30 06:45:01;;;;;;;;;;;15.10;99.90;;;;;;5097819;28;20002;-62
2023/04/30 06:47:27;;;;;;;;;;;15.10;99.90;;;;;;5097788;28;19955;-62
2023/04/30 06:49:52;;;;;;;;;;;15.10;99.90;;;;;;5097921;28;20267;-61
2023/04/30 06:52:18;;;;;;;;;;;15.20;99.90;;;;;;5097876;28;20334;-62
2023/04/30 06:54:44;;;;;;;;;;;15.20;99.90;;;;;;5088709;28;19972;-62
2023/04/30 06:57:11;;;;;;;;;;;15.30;99.90;;;;;;5087628;28;19922;-62
2023/04/30 06:59:36;;;;;;;;;;;15.40;99.90;;;;;;5082820;28;19919;-62
2023/04/30 07:02:02;;;;;;;;;;;15.50;99.90;;;;;;5077579;28;19908;-62
2023/04/30 07:04:28;;;;;;;;;;;15.50;99.90;;;;;;5086344;28;19919;-62
2023/04/30 07:06:53;;;;;;;;;;;15.50;99.90;;;;;;5097733;28;19914;-62
2023/04/30 07:09:19;;;;;;;;;;;15.60;99.90;;;;;;5097709;28;20332;-62
2023/04/30 07:11:45;;;;;;;;;;;15.60;99.90;;;;;;5097401;28;19908;-62
2023/04/30 07:14:10;;;;;;;;;;;15.70;99.90;;;;;;5097943;28;20337;-61
2023/04/30 07:16:36;;;;;;;;;;;15.70;99.90;;;;;;5101504;28;19912;-62
2023/04/30 07:19:02;;;;;;;;;;;15.80;99.90;;;;;;5101385;28;19908;-62
2023/04/30 07:21:28;;;;;;;;;;;16.00;99.90;;;;;;5101257;28;19908;-62
2023/04/30 07:23:54;;;;;;;;;;;16.10;99.90;;;;;;5101168;28;20420;-62
2023/04/30 07:26:20;;;;;;;;;;;16.30;99.90;;;;;;5100190;28;19912;-62
2023/04/30 07:28:47;;;;;;;;;;;16.20;99.90;;;;;;5101053;28;19947;-62
2023/04/30 07:31:13;;;;;;;;;;;16.20;99.90;;;;;;5101083;28;19995;-62
2023/04/30 07:33:38;;;;;;;;;;;16.10;99.90;;;;;;5100989;28;19943;-62
2023/04/30 07:36:04;;;;;;;;;;;16.10;99.90;;;;;;5101193;28;19935;-62
2023/04/30 07:38:30;;;;;;;;;;;16.10;99.90;;;;;;5101015;28;19994;-62
2023/04/30 07:40:56;;;;;;;;;;;16.00;99.90;;;;;;5100788;28;19943;-62
2023/04/30 07:43:22;;;;;;;;;;;16.00;99.90;;;;;;5101101;28;19915;-62
2023/04/30 07:45:48;;;;;;;;;;;15.90;99.90;;;;;;5101193;28;20310;-62
2023/04/30 07:48:15;;;;;;;;;;;16.00;99.90;;;;;;5101046;28;19916;-62
2023/04/30 07:50:40;;;;;;;;;;;16.00;99.90;;;;;;5100929;28;19908;-62
2023/04/30 07:53:08;;;;;;;;;;;15.90;99.90;;;;;;5100665;28;20464;-61
2023/04/30 07:55:33;;;;;;;;;;;16.00;99.90;;;;;;5100083;28;19927;-62
2023/04/30 07:58:01;;;;;;;;;;;16.10;99.90;;;;;;5100597;28;19908;-62
2023/04/30 08:00:28;;;;;;;;;;;16.20;99.90;;;;;;5100770;28;19908;-62
2023/04/30 08:02:53;;;;;;;;;;;16.10;99.90;;;;;;5093921;28;19944;-62
2023/04/30 08:05:20;;;;;;;;;;;16.10;99.90;;;;;;5088450;28;19915;-62
2023/04/30 08:07:45;;;;;;;;;;;16.20;99.90;;;;;;5096218;28;19931;-62
2023/04/30 08:10:11;;;;;;;;;;;16.30;99.90;;;;;;5100910;28;19912;-62
2023/04/30 08:12:37;;;;;;;;;;;16.30;99.90;;;;;;5094100;28;19913;-62
2023/04/30 08:15:03;;;;;;;;;;;16.30;99.90;;;;;;5090230;28;19909;-62
2023/04/30 08:17:29;;;;;;;;;;;16.40;99.90;;;;;;5090061;28;19963;-62
2023/04/30 08:19:55;;;;;;;;;;;16.40;99.90;;;;;;5087220;28;19913;-62
2023/04/30 08:22:21;;;;;;;;;;;16.50;99.90;;;;;;5087431;28;20038;-62
2023/04/30 08:24:47;;;;;;;;;;;16.60;99.90;;;;;;5088955;28;19908;-62
2023/04/30 08:27:12;;;;;;;;;;;16.60;99.90;;;;;;5088379;28;20403;-62
2023/04/30 08:29:38;;;;;;;;;;;16.60;99.90;;;;;;5095227;28;19920;-62
2023/04/30 08:32:04;;;;;;;;;;;16.70;99.90;;;;;;5100254;28;19912;-62
2023/04/30 08:34:30;;;;;;;;;;;16.80;99.90;;;;;;5093027;28;19920;-62
2023/04/30 08:36:56;;;;;;;;;;;16.70;99.90;;;;;;5080634;28;19912;-62
2023/04/30 08:39:21;;;;;;;;;;;16.70;99.90;;;;;;5077583;28;19955;-62
2023/04/30 08:41:51;;;;;;;;;;;16.80;99.90;;;;;;5077686;28;20003;-62
2023/04/30 08:44:19;;;;;;;;;;;16.70;99.90;;;;;;5078597;28;19909;-62
2023/04/30 08:46:45;;;;;;;;;;;16.60;99.90;;;;;;5079733;28;19909;-62
2023/04/30 08:49:11;;;;;;;;;;;16.60;99.90;;;;;;5079450;28;20382;-62
2023/04/30 08:51:36;;;;;;;;;;;16.60;99.90;;;;;;5079492;28;19954;-62
2023/04/30 08:54:02;;;;;;;;;;;16.60;99.90;;;;;;5079284;28;19909;-62
2023/04/30 08:56:30;;;;;;;;;;;16.60;99.90;;;;;;5079701;28;19919;-62
2023/04/30 08:58:55;;;;;;;;;;;16.60;99.90;;;;;;5079156;28;20326;-62
2023/04/30 09:01:22;;;;;;;;;;;16.60;99.90;;;;;;5079446;28;19919;-62
2023/04/30 09:03:47;;;;;;;;;;;16.50;99.90;;;;;;5078803;28;19975;-62
2023/04/30 09:06:16;;;;;;;;;;;16.60;99.90;;;;;;5078783;28;19908;-62
2023/04/30 09:08:42;;;;;;;;;;;16.60;99.90;;;;;;5079401;28;20280;-62
2023/04/30 09:11:23;;;;;;;;;;;16.60;99.90;;;;;;5078820;28;19932;-62
2023/04/30 09:13:51;;;;;;;;;;;16.60;99.90;;;;;;5078748;28;20393;-62
2023/04/30 09:16:17;;;;;;;;;;;16.70;99.90;;;;;;5079022;28;19913;-62
2023/04/30 09:18:43;;;;;;;;;;;16.70;99.90;;;;;;5078789;28;20344;-62
2023/04/30 09:21:08;;;;;;;;;;;16.80;99.90;;;;;;5079032;28;19970;-62
2023/04/30 09:23:34;;;;;;;;;;;16.80;99.90;;;;;;5078688;28;20269;-62
2023/04/30 09:26:00;;;;;;;;;;;16.80;99.90;;;;;;5078952;28;19908;-62
2023/04/30 09:28:27;;;;;;;;;;;16.90;99.90;;;;;;5078567;28;20406;-62
2023/04/30 09:30:55;;;;;;;;;;;17.00;99.90;;;;;;5078762;28;19909;-62
2023/04/30 09:33:21;;;;;;;;;;;17.10;99.90;;;;;;5078354;28;19920;-62
2023/04/30 09:35:47;;;;;;;;;;;17.20;99.90;;;;;;5078617;28;19913;-62
2023/04/30 09:38:31;;;;;;;;;;;17.10;99.90;;;;;;5077911;28;20459;-62
2023/04/30 09:40:59;;;;;;;;;;;17.20;99.90;;;;;;5078305;28;19916;-62
2023/04/30 09:43:24;;;;;;;;;;;17.20;99.90;;;;;;5078642;28;20042;-62
2023/04/30 09:45:51;;;;;;;;;;;17.30;99.90;;;;;;5078358;28;19943;-62
2023/04/30 09:48:17;;;;;;;;;;;17.40;99.90;;;;;;5078526;28;19930;-62
2023/04/30 09:50:46;;;;;;;;;;;17.50;99.90;;;;;;5078270;28;19926;-62
2023/04/30 09:53:16;;;;;;;;;;;17.70;99.90;;;;;;5078676;28;19912;-62
2023/04/30 09:55:43;;;;;;;;;;;17.80;99.90;;;;;;5078120;28;19916;-62
2023/04/30 09:58:09;;;;;;;;;;;17.70;99.90;;;;;;5077967;28;19955;-62
2023/04/30 10:00:35;;;;;;;;;;;17.90;99.90;;;;;;5078522;28;19951;-62
2023/04/30 10:03:04;;;;;;;;;;;18.10;99.90;;;;;;5078151;28;19912;-62
2023/04/30 10:05:31;;;;;;;;;;;18.40;99.90;;;;;;5078148;28;19994;-62
2023/04/30 10:07:57;;;;;;;;;;;18.70;99.90;;;;;;5078158;28;20001;-62
2023/04/30 10:10:24;;;;;;;;;;;18.80;99.90;;;;;;5078276;28;19909;-62
2023/04/30 10:12:50;;;;;;;;;;;18.60;99.90;;;;;;5078097;28;20271;-62
2023/04/30 10:15:21;;;;;;;;;;;18.80;99.90;;;;;;5077801;28;19955;-62
2023/04/30 10:17:54;;;;;;;;;;;18.70;99.90;;;;;;5077816;28;19912;-62
2023/04/30 10:20:20;;;;;;;;;;;19.00;99.90;;;;;;5077930;28;20388;-62
2023/04/30 10:22:46;;;;;;;;;;;19.50;99.90;;;;;;5077525;28;19930;-62
2023/04/30 10:25:12;;;;;;;;;;;19.90;99.90;;;;;;5077814;28;19919;-63
2023/04/30 10:27:38;;;;;;;;;;;20.10;99.90;;;;;;5077766;28;19920;-62
2023/04/30 10:30:05;;;;;;;;;;;20.50;99.90;;;;;;5077972;28;19909;-62
2023/04/30 10:32:34;;;;;;;;;;;20.70;99.90;;;;;;5077617;28;19912;-62
2023/04/30 10:35:20;;;;;;;;;;;21.10;99.90;;;;;;5077980;28;19908;-62
2023/04/30 10:37:48;;;;;;;;;;;21.30;99.90;;;;;;5077419;28;19919;-62
2023/04/30 10:40:14;;;;;;;;;;;21.10;99.90;;;;;;5077894;28;19944;-63
2023/04/30 10:42:47;;;;;;;;;;;21.20;99.90;;;;;;5077753;28;19909;-63
2023/04/30 10:45:14;;;;;;;;;;;21.20;99.90;;;;;;5077859;28;19915;-63
2023/04/30 10:47:46;;;;;;;;;;;20.90;99.90;;;;;;5077641;28;19908;-63
2023/04/30 10:50:12;;;;;;;;;;;20.50;99.90;;;;;;5081530;28;20420;-63
2023/04/30 10:52:38;;;;;;;;;;;20.30;99.90;;;;;;5081519;28;19908;-62
2023/04/30 10:55:04;;;;;;;;;;;20.10;99.90;;;;;;5081775;28;20027;-63
2023/04/30 10:57:30;;;;;;;;;;;20.20;99.90;;;;;;5081652;28;19916;-63
2023/04/30 11:00:08;;;;;;;;;;;20.20;99.90;;;;;;5081582;28;19909;-62
2023/04/30 11:02:55;;;;;;;;;;;20.30;99.90;;;;;;5081494;28;19908;-62
2023/04/30 11:05:21;;;;;;;;;;;20.30;99.90;;;;;;5081907;28;19915;-62
2023/04/30 11:07:48;;;;;;;;;;;20.30;99.90;;;;;;5081191;28;20269;-63
2023/04/30 11:10:13;;;;;;;;;;;20.50;99.90;;;;;;5081361;28;20333;-63
2023/04/30 11:12:52;;;;;;;;;;;20.50;99.90;;;;;;5081527;28;19915;-62
2023/04/30 11:15:19;;;;;;;;;;;20.30;99.90;;;;;;5081712;28;19908;-62
2023/04/30 11:17:45;;;;;;;;;;;20.70;99.90;;;;;;5081166;28;19959;-62
2023/04/30 11:20:12;;;;;;;;;;;21.60;99.90;;;;;;5081374;28;19908;-63
2023/04/30 11:22:38;;;;;;;;;;;21.70;99.90;;;;;;5080931;28;19991;-62
2023/04/30 11:25:17;;;;;;;;;;;21.40;99.90;;;;;;5080895;28;20005;-62
2023/04/30 11:27:43;;;;;;;;;;;21.50;99.90;;;;;;5080636;28;19917;-63
2023/04/30 11:30:09;;;;;;;;;;;22.20;99.90;;;;;;5080928;28;20006;-62
2023/04/30 11:32:37;;;;;;;;;;;22.80;99.90;;;;;;5079243;28;20013;-62
2023/04/30 11:35:04;;;;;;;;;;;22.50;99.90;;;;;;5080948;28;19935;-62
2023/04/30 11:37:31;;;;;;;;;;;22.50;99.90;;;;;;5080898;28;19913;-62
2023/04/30 11:39:59;;;;;;;;;;;23.30;99.90;;;;;;5080929;28;20383;-63
2023/04/30 11:42:25;;;;;;;;;;;24.20;99.90;;;;;;5080676;28;19909;-63
2023/04/30 11:44:50;;;;;;;;;;;24.60;99.90;;;;;;5080817;28;19958;-62
2023/04/30 11:47:16;;;;;;;;;;;24.30;98.20;;;;;;5080639;28;20425;-62
2023/04/30 11:49:42;;;;;;;;;;;23.90;93.30;;;;;;5080817;28;19908;-63
2023/04/30 11:52:08;;;;;;;;;;;23.50;99.90;;;;;;5080634;28;19915;-63
2023/04/30 11:54:37;;;;;;;;;;;23.40;99.90;;;;;;5080401;28;19908;-62
2023/04/30 11:57:03;;;;;;;;;;;24.80;99.90;;;;;;5080465;28;19912;-62
2023/04/30 11:59:29;;;;;;;;;;;24.80;94.20;;;;;;5079843;28;19915;-63
2023/04/30 12:01:55;;;;;;;;;;;24.60;98.70;;;;;;5080195;28;19908;-63
2023/04/30 12:04:21;;;;;;;;;;;24.20;93.60;;;;;;5080364;28;19909;-63
2023/04/30 12:06:47;;;;;;;;;;;25.20;99.60;;;;;;5080775;28;19909;-63
2023/04/30 12:09:13;;;;;;;;;;;25.60;99.90;;;;;;5080237;28;20387;-63
2023/04/30 12:11:38;;;;;;;;;;;25.80;99.50;;;;;;5080677;28;20260;-63
2023/04/30 12:14:09;;;;;;;;;;;25.90;95.60;;;;;;5080307;28;19923;-63
2023/04/30 12:16:48;;;;;;;;;;;25.50;97.40;;;;;;5079830;28;20334;-63
2023/04/30 12:19:14;;;;;;;;;;;26.00;96.90;;;;;;5080006;28;19932;-63
2023/04/30 12:21:41;;;;;;;;;;;25.60;99.90;;;;;;5079830;28;20330;-62
2023/04/30 12:24:07;;;;;;;;;;;25.80;84.60;;;;;;5079881;28;19921;-63
2023/04/30 12:26:36;;;;;;;;;;;25.00;93.50;;;;;;5080326;28;19958;-63
2023/04/30 12:29:09;;;;;;;;;;;25.00;91.30;;;;;;5079700;28;19955;-63
2023/04/30 12:31:36;;;;;;;;;;;24.00;90.30;;;;;;5079982;28;19908;-63
2023/04/30 12:34:06;;;;;;;;;;;23.40;96.60;;;;;;5079755;28;19999;-63
2023/04/30 12:36:32;;;;;;;;;;;22.60;98.10;;;;;;5079623;28;19966;-63
2023/04/30 12:39:10;;;;;;;;;;;22.30;98.30;;;;;;5079745;28;20003;-63
2023/04/30 12:41:40;;;;;;;;;;;21.80;98.10;;;;;;5079550;28;20441;-63
2023/04/30 12:44:15;;;;;;;;;;;21.70;99.90;;;;;;5080039;28;19912;-63
2023/04/30 12:46:41;;;;;;;;;;;21.60;99.90;;;;;;5079737;28;19916;-63
2023/04/30 12:49:07;;;;;;;;;;;21.30;99.90;;;;;;5079530;28;19936;-62
2023/04/30 12:51:35;;;;;;;;;;;21.20;99.90;;;;;;5079628;28;19931;-62
2023/04/30 12:54:01;;;;;;;;;;;20.90;99.90;;;;;;5079354;28;19909;-63
2023/04/30 12:56:26;;;;;;;;;;;21.10;99.90;;;;;;5079241;28;19919;-63
2023/04/30 12:58:52;;;;;;;;;;;21.50;99.90;;;;;;5079731;28;20356;-62
2023/04/30 13:01:19;;;;;;;;;;;22.40;99.90;;;;;;5079148;28;19989;-62
2023/04/30 13:03:45;;;;;;;;;;;23.10;99.90;;;;;;5078944;28;19915;-62
2023/04/30 13:06:11;;;;;;;;;;;23.40;98.30;;;;;;5079319;28;20607;-63
2023/04/30 13:08:36;;;;;;;;;;;23.80;98.70;;;;;;5079139;28;19911;-63
2023/04/30 13:11:03;;;;;;;;;;;23.90;99.90;;;;;;5079185;28;19958;-62
2023/04/30 13:13:28;;;;;;;;;;;24.00;98.50;;;;;;5079462;28;19957;-62
2023/04/30 13:15:54;;;;;;;;;;;24.20;95.90;;;;;;5078882;28;19912;-62
2023/04/30 13:18:20;;;;;;;;;;;24.00;99.90;;;;;;5079305;28;19931;-62
2023/04/30 13:20:46;;;;;;;;;;;24.10;99.90;;;;;;5078739;28;19909;-63
2023/04/30 13:23:12;;;;;;;;;;;24.30;92.10;;;;;;5078983;28;19920;-63
2023/04/30 13:25:38;;;;;;;;;;;24.60;95.60;;;;;;5078736;28;20330;-63
2023/04/30 13:28:04;;;;;;;;;;;24.30;94.50;;;;;;5078604;28;19920;-63
2023/04/30 13:30:29;;;;;;;;;;;24.50;97.30;;;;;;5078995;28;19991;-63
2023/04/30 13:32:55;;;;;;;;;;;24.50;91.90;;;;;;5078798;28;19909;-63
2023/04/30 13:35:21;;;;;;;;;;;24.30;93.60;;;;;;5078458;28;20326;-63
2023/04/30 13:37:48;;;;;;;;;;;24.00;94.60;;;;;;5078194;28;19912;-63
2023/04/30 13:40:14;;;;;;;;;;;24.20;96.80;;;;;;5078381;28;20260;-63
2023/04/30 13:42:41;;;;;;;;;;;24.40;99.90;;;;;;5078386;28;20410;-63
2023/04/30 13:45:07;;;;;;;;;;;24.50;95.70;;;;;;5078538;28;19908;-63
2023/04/30 13:47:33;;;;;;;;;;;23.50;95.00;;;;;;5078032;28;19909;-63
2023/04/30 13:49:59;;;;;;;;;;;23.80;97.10;;;;;;5078218;28;19999;-63
2023/04/30 13:52:25;;;;;;;;;;;23.80;92.00;;;;;;5078261;28;19908;-63
2023/04/30 13:54:51;;;;;;;;;;;23.30;99.90;;;;;;5078459;28;19916;-63
2023/04/30 13:57:16;;;;;;;;;;;24.00;99.00;;;;;;5078014;28;19966;-63
2023/04/30 13:59:42;;;;;;;;;;;24.50;97.70;;;;;;5078311;28;20333;-63
2023/04/30 14:02:08;;;;;;;;;;;24.70;93.20;;;;;;5078332;28;20003;-63
2023/04/30 14:04:33;;;;;;;;;;;24.30;94.30;;;;;;5078323;28;19909;-62
2023/04/30 14:07:00;;;;;;;;;;;23.60;90.60;;;;;;5078049;28;19909;-63
2023/04/30 14:09:26;;;;;;;;;;;23.10;95.90;;;;;;5078452;28;19912;-63
2023/04/30 14:11:51;;;;;;;;;;;22.50;95.00;;;;;;5078239;28;19987;-62
2023/04/30 14:14:17;;;;;;;;;;;22.20;98.90;;;;;;5078251;28;19973;-62